Phoenicia, NY (12464)

12:35 PM EDT on May 30, 2015 (GMT -0400)
Woodland Valley | | Change Station
CLOSE
Current Station
Personal Weather Station
Location: Phoenicia, NY
Elevation: 1240 ft
Nearby Weather Stations

Elev 1240 ft 42.04 °N, 74.34 °W | Updated 11 seconds ago

Mostly Cloudy
Mostly Cloudy
83.5 °F
Feels Like 87 °F
N
2.0
Wind Variable Wind from East
Gusts 8.0 mph

Today
High -- | Low -- °F
--% Chance of Precip.
Yesterday
High -- | Low -- °F
Precip. -- in
5:25 AM 8:24 PM
Waxing Gibbous, 91% visible
Pressure 30.18 in
Visibility 10.0 miles
Clouds Scattered Clouds 2600 ft
Scattered Clouds 3000 ft
Mostly Cloudy 3600 ft
Heat Index 87 °F
Dew Point 68 °F
Humidity 60%
Rainfall 0.00 in
Snow Depth Not available.
UV 6 out of 12
Pollen 8.00 out of 12
Air Quality Not available.
Flu Activity Sporadic
METAR KMSV 301615Z AUTO 18013G18KT 10SM SCT026 SCT030 BKN036 26/19 A3018 RMK AO1

More Conditions Fewer Conditions

Pressure 30.18 in
Visibility 10.0 miles
Clouds Scattered Clouds 2600 ft
Scattered Clouds 3000 ft
Mostly Cloudy 3600 ft
Heat Index 87 °F
Dew Point 68 °F
Humidity 60%
Rainfall 0.00 in
Snow Depth Not available.
UV 6 out of 12
Pollen 8.00 out of 12
Air Quality Not available.
Flu Activity Sporadic
METAR KMSV 301615Z AUTO 18013G18KT 10SM SCT026 SCT030 BKN036 26/19 A3018 RMK AO1

More Conditions Fewer Conditions

10-Day Weather Forecast

Almanac

Astronomy

May. 30, 2015 Rise Set
Actual Time
Civil Twilight
Nautical Twilight
Astronomical Twilight
Moon
Length of Visible Light
Length of Day
Tomorrow will be .
, % of the Moon is Illuminated

Today's Extremes

State Highs State Lows

Community

WunderPhotos

Upload Photos

1,825,563 photos uploaded!

WunderBlogs® & News

Nearby

Air Quality

  Air Quality AQ Index Pollutant
Not available.

Snow Depth

Station Depth Elevation

Earthquake Activity

City Distance Mag. Time & Date
Minimum magnitude displayed is 2.5.

Coastal Water Temperatures

Place Temperature

Stations

Nearby Weather Stations

Station Location Temp. Windchill Dew Point Humidity Wind Precip. Elev Updated Type